createdAt,value
2022-07-26T00:01:46.683Z,17.23
2022-07-26T00:04:13.561Z,17.22
2022-07-26T00:06:40.306Z,17.21
2022-07-26T00:09:07.371Z,17.19
2022-07-26T00:11:34.422Z,17.17
2022-07-26T00:14:02.504Z,17.15
2022-07-26T00:16:29.421Z,17.11
2022-07-26T00:18:56.274Z,17.12
2022-07-26T00:21:23.296Z,17.11
2022-07-26T00:23:50.127Z,17.09
2022-07-26T00:26:16.919Z,17.08
2022-07-26T00:28:43.687Z,17.06
2022-07-26T00:31:12.155Z,17.02
2022-07-26T00:33:39.327Z,16.96
2022-07-26T00:36:06.428Z,16.91
2022-07-26T00:38:33.194Z,16.85
2022-07-26T00:41:00.120Z,16.78
2022-07-26T00:43:26.874Z,16.71
2022-07-26T00:45:53.697Z,16.63
2022-07-26T00:48:20.588Z,16.56
2022-07-26T00:50:47.754Z,16.49
2022-07-26T00:53:14.541Z,16.42
2022-07-26T00:55:41.369Z,16.36
2022-07-26T00:58:08.156Z,16.30
2022-07-26T01:00:35.256Z,16.24
2022-07-26T01:03:02.793Z,16.18
2022-07-26T01:05:29.568Z,16.13
2022-07-26T01:07:56.303Z,16.09
2022-07-26T01:10:23.125Z,16.05
2022-07-26T01:12:49.956Z,16.01
2022-07-26T01:15:16.877Z,15.97
2022-07-26T01:17:43.665Z,15.94
2022-07-26T01:20:11.413Z,15.91
2022-07-26T01:22:38.260Z,15.88
2022-07-26T01:25:05.797Z,15.85
2022-07-26T01:27:39.527Z,15.83
2022-07-26T01:30:08.215Z,15.81
2022-07-26T01:32:35.033Z,15.78
2022-07-26T01:35:02.205Z,15.75
2022-07-26T01:37:29.014Z,15.73
2022-07-26T01:39:55.820Z,15.69
2022-07-26T01:42:22.572Z,15.66
2022-07-26T01:44:49.408Z,15.63
2022-07-26T01:47:16.145Z,15.59
2022-07-26T01:49:42.883Z,15.56
2022-07-26T01:52:09.637Z,15.53
2022-07-26T01:54:36.368Z,15.50
2022-07-26T01:57:03.281Z,15.48
2022-07-26T01:59:30.081Z,15.46
2022-07-26T02:02:00.070Z,15.44
2022-07-26T02:04:45.488Z,15.42
2022-07-26T02:07:13.575Z,15.39
2022-07-26T02:09:40.663Z,15.38
2022-07-26T02:12:07.807Z,15.37
2022-07-26T02:14:34.558Z,15.37
2022-07-26T02:17:01.491Z,15.35
2022-07-26T02:19:28.748Z,15.35
2022-07-26T02:21:55.532Z,15.33
2022-07-26T02:24:22.335Z,15.33
2022-07-26T02:26:49.149Z,15.32
2022-07-26T02:29:15.989Z,15.29
2022-07-26T02:31:42.798Z,15.26
2022-07-26T02:34:15.737Z,15.25
2022-07-26T02:36:42.497Z,15.23
2022-07-26T02:39:09.237Z,15.22
2022-07-26T02:41:36.101Z,15.20
2022-07-26T02:44:02.893Z,15.18
2022-07-26T02:46:29.734Z,15.17
2022-07-26T02:48:56.763Z,15.16
2022-07-26T02:51:23.578Z,15.16
2022-07-26T02:53:50.344Z,15.15
2022-07-26T02:56:17.128Z,15.14
2022-07-26T02:58:43.885Z,15.15
2022-07-26T03:01:10.780Z,15.14
2022-07-26T03:03:38.266Z,15.14
2022-07-26T03:06:05.262Z,15.16
2022-07-26T03:08:32.038Z,15.18
2022-07-26T03:11:00.018Z,15.22
2022-07-26T03:13:26.787Z,15.26
2022-07-26T03:15:53.595Z,15.29
2022-07-26T03:18:20.406Z,15.32
2022-07-26T03:20:48.000Z,15.34
2022-07-26T03:23:14.838Z,15.37
2022-07-26T03:25:41.731Z,15.41
2022-07-26T03:28:08.496Z,15.46
2022-07-26T03:30:35.283Z,15.52
2022-07-26T03:33:02.203Z,15.58
2022-07-26T03:35:28.992Z,15.63
2022-07-26T03:37:55.743Z,15.69
2022-07-26T03:40:22.538Z,15.76
2022-07-26T03:42:49.328Z,15.81
2022-07-26T03:45:16.234Z,15.87
2022-07-26T03:47:43.262Z,15.93
2022-07-26T03:50:11.153Z,16.00
2022-07-26T03:52:37.963Z,16.06
2022-07-26T03:55:25.531Z,16.13
2022-07-26T03:57:52.219Z,16.23
2022-07-26T04:00:19.039Z,16.30
2022-07-26T04:02:46.102Z,16.36
2022-07-26T04:05:12.848Z,16.44
2022-07-26T04:07:52.430Z,16.52
2022-07-26T04:10:21.086Z,16.61
2022-07-26T04:12:48.028Z,16.69
2022-07-26T04:15:17.213Z,16.76
2022-07-26T04:17:44.311Z,16.84
2022-07-26T04:20:11.710Z,16.91
2022-07-26T04:22:39.049Z,17.00
2022-07-26T04:25:06.622Z,17.09
2022-07-26T04:27:33.518Z,17.17
2022-07-26T04:30:00.218Z,17.24
2022-07-26T04:32:26.994Z,17.32
2022-07-26T04:34:53.747Z,17.38
2022-07-26T04:37:20.504Z,17.44
2022-07-26T04:39:51.672Z,17.51
2022-07-26T04:42:21.370Z,17.56
2022-07-26T04:44:48.091Z,17.60
2022-07-26T04:47:14.829Z,17.62
2022-07-26T04:49:41.645Z,17.69
2022-07-26T04:52:08.398Z,17.73
2022-07-26T04:54:35.217Z,17.78
2022-07-26T04:57:01.947Z,17.84
2022-07-26T04:59:28.728Z,17.89
2022-07-26T05:01:59.792Z,17.95
2022-07-26T05:04:26.789Z,17.99
2022-07-26T05:06:53.548Z,18.08
2022-07-26T05:09:20.335Z,18.16
2022-07-26T05:11:47.136Z,18.22
2022-07-26T05:14:13.876Z,18.28
2022-07-26T05:16:44.284Z,18.36
2022-07-26T05:19:13.622Z,18.49
2022-07-26T05:21:40.406Z,18.64
2022-07-26T05:24:08.124Z,18.86
2022-07-26T05:26:35.089Z,19.10
2022-07-26T05:29:02.168Z,19.41
2022-07-26T05:31:28.960Z,19.78
2022-07-26T05:33:55.714Z,20.18
2022-07-26T05:36:22.659Z,20.57
2022-07-26T05:38:49.399Z,20.93
2022-07-26T05:41:16.648Z,21.28
2022-07-26T05:43:43.371Z,21.52
2022-07-26T05:46:11.282Z,21.71
2022-07-26T05:48:41.972Z,21.86
2022-07-26T05:51:09.959Z,22.06
2022-07-26T05:53:36.993Z,22.16
2022-07-26T05:56:04.438Z,22.15
2022-07-26T05:58:31.196Z,22.28
2022-07-26T06:00:57.905Z,22.56
2022-07-26T06:03:24.708Z,22.85
2022-07-26T06:05:55.585Z,23.11
2022-07-26T06:08:22.945Z,23.25
2022-07-26T06:10:49.827Z,23.25
2022-07-26T06:13:16.695Z,23.10
2022-07-26T06:15:45.023Z,23.00
2022-07-26T06:18:11.789Z,22.83
2022-07-26T06:20:39.836Z,22.62
2022-07-26T06:23:06.696Z,22.43
2022-07-26T06:25:33.443Z,22.19
2022-07-26T06:28:03.001Z,22.01
2022-07-26T06:30:29.962Z,21.83
2022-07-26T06:32:56.924Z,21.69
2022-07-26T06:35:24.316Z,21.61
2022-07-26T06:37:51.055Z,21.55
2022-07-26T06:40:17.857Z,21.52
2022-07-26T06:42:44.611Z,21.51
2022-07-26T06:45:12.093Z,21.48
2022-07-26T06:47:38.818Z,21.47
2022-07-26T06:50:06.072Z,21.42
2022-07-26T06:52:32.963Z,21.35
2022-07-26T06:55:00.340Z,21.33
2022-07-26T06:57:27.226Z,21.35
2022-07-26T06:59:53.975Z,21.37
2022-07-26T07:02:20.962Z,21.37
2022-07-26T07:04:47.928Z,21.27
2022-07-26T07:07:14.815Z,21.19
2022-07-26T07:09:41.562Z,21.13
2022-07-26T07:12:10.489Z,21.10
2022-07-26T07:14:38.386Z,21.07
2022-07-26T07:17:11.595Z,21.09
2022-07-26T07:19:39.987Z,21.15
2022-07-26T07:22:06.771Z,21.19
2022-07-26T07:24:33.520Z,21.27
2022-07-26T07:27:01.342Z,21.37
2022-07-26T07:29:28.166Z,21.44
2022-07-26T07:31:56.520Z,21.49
2022-07-26T07:34:23.831Z,21.50
2022-07-26T07:36:50.791Z,21.52
2022-07-26T07:39:17.966Z,21.50
2022-07-26T07:41:47.837Z,21.47
2022-07-26T07:44:14.639Z,21.44
2022-07-26T07:46:41.486Z,21.40
2022-07-26T07:49:08.748Z,21.32
2022-07-26T07:51:36.315Z,21.25
2022-07-26T07:54:05.939Z,21.22
2022-07-26T07:56:33.756Z,21.21
2022-07-26T07:59:00.665Z,21.24
2022-07-26T08:01:39.830Z,21.29
2022-07-26T08:04:08.764Z,21.40
2022-07-26T08:06:36.105Z,21.51
2022-07-26T08:09:03.826Z,21.61
2022-07-26T08:11:33.835Z,21.66
2022-07-26T08:14:01.464Z,21.67
2022-07-26T08:16:28.398Z,21.72
2022-07-26T08:18:57.869Z,21.75
2022-07-26T08:21:29.264Z,21.76
2022-07-26T08:23:57.189Z,21.77
2022-07-26T08:26:24.036Z,21.80
2022-07-26T08:28:58.422Z,21.90
2022-07-26T08:31:28.464Z,22.03
2022-07-26T08:33:55.558Z,22.14
2022-07-26T08:36:23.428Z,22.23
2022-07-26T08:38:50.360Z,22.30
2022-07-26T08:41:18.046Z,22.33
2022-07-26T08:43:51.832Z,22.35
2022-07-26T08:46:28.031Z,22.37
2022-07-26T08:48:55.991Z,22.42
2022-07-26T08:51:24.027Z,22.48
2022-07-26T08:53:52.520Z,22.48
2022-07-26T08:56:19.298Z,22.47
2022-07-26T08:58:46.082Z,22.46
2022-07-26T09:01:13.305Z,22.46
2022-07-26T09:03:44.106Z,22.45
2022-07-26T09:06:19.804Z,22.46
2022-07-26T09:08:48.315Z,22.48
2022-07-26T09:24:45.427Z,22.90
2022-07-26T09:27:14.044Z,22.99
2022-07-26T09:29:44.461Z,23.03
2022-07-26T09:32:15.384Z,23.05
2022-07-26T09:34:51.985Z,23.06
2022-07-26T09:37:19.560Z,23.04
2022-07-26T09:39:59.672Z,23.03
2022-07-26T09:42:29.295Z,23.03
2022-07-26T09:44:56.808Z,23.00
2022-07-26T09:47:27.968Z,22.96
2022-07-26T09:50:11.832Z,22.90
2022-07-26T09:52:38.853Z,22.91
2022-07-26T09:55:06.971Z,22.94
2022-07-26T09:57:35.205Z,22.97
2022-07-26T10:00:05.264Z,23.04
2022-07-26T10:02:33.176Z,23.14
2022-07-26T10:04:59.922Z,23.20
2022-07-26T10:07:26.675Z,23.27
2022-07-26T10:09:57.569Z,23.36
2022-07-26T10:12:30.093Z,23.43
2022-07-26T10:14:57.345Z,23.48
2022-07-26T10:17:30.842Z,23.52
2022-07-26T10:20:02.880Z,23.56
2022-07-26T10:22:35.231Z,23.57
2022-07-26T10:25:31.362Z,23.59
2022-07-26T10:27:58.169Z,23.69
2022-07-26T10:30:33.938Z,23.77
2022-07-26T10:33:11.418Z,23.82
2022-07-26T10:35:43.551Z,23.83
2022-07-26T10:38:27.126Z,23.80
2022-07-26T10:41:01.120Z,23.77
2022-07-26T10:43:43.724Z,23.77
2022-07-26T10:46:16.915Z,23.76
2022-07-26T10:48:57.689Z,23.73
2022-07-26T10:51:29.635Z,23.75
2022-07-26T10:54:03.636Z,23.77
2022-07-26T10:56:33.339Z,23.83
2022-07-26T10:59:00.881Z,23.87
2022-07-26T11:01:37.781Z,23.89
2022-07-26T11:04:04.871Z,23.89
2022-07-26T11:06:31.648Z,23.88
2022-07-26T11:08:58.424Z,23.88
2022-07-26T11:11:32.568Z,23.90
2022-07-26T11:14:10.111Z,23.90
2022-07-26T11:16:40.574Z,23.91
2022-07-26T11:19:20.350Z,23.91
2022-07-26T11:21:53.174Z,23.88
2022-07-26T11:24:22.026Z,23.81
2022-07-26T11:26:48.929Z,23.78
2022-07-26T11:29:17.635Z,23.78
2022-07-26T11:31:51.005Z,23.84
2022-07-26T11:34:29.741Z,23.93
2022-07-26T11:36:57.850Z,24.02
2022-07-26T11:39:29.984Z,24.08
2022-07-26T11:42:16.990Z,24.13
2022-07-26T11:44:44.566Z,24.17
2022-07-26T11:47:15.262Z,24.19
2022-07-26T11:50:00.233Z,24.22
2022-07-26T11:52:29.578Z,24.28
2022-07-26T11:54:56.347Z,24.34
2022-07-26T11:57:28.100Z,24.39
2022-07-26T11:59:54.826Z,24.43
2022-07-26T12:02:22.462Z,24.44
2022-07-26T12:04:49.396Z,24.46
2022-07-26T12:07:17.408Z,24.48
2022-07-26T12:09:48.811Z,24.49
2022-07-26T12:12:27.397Z,24.52
2022-07-26T12:14:59.762Z,24.55
2022-07-26T12:17:26.717Z,24.59
2022-07-26T12:20:15.352Z,24.60
2022-07-26T12:22:55.114Z,24.62
2022-07-26T12:25:28.592Z,24.65
2022-07-26T12:27:55.423Z,24.71
2022-07-26T12:30:22.225Z,24.77
2022-07-26T12:32:51.454Z,24.82
2022-07-26T12:35:25.407Z,24.87
2022-07-26T12:37:53.571Z,24.91
2022-07-26T12:40:25.247Z,24.95
2022-07-26T12:42:55.850Z,24.97
2022-07-26T12:45:32.894Z,25.01
2022-07-26T12:48:00.590Z,25.09
2022-07-26T12:50:28.236Z,25.16
2022-07-26T12:53:03.070Z,25.20
2022-07-26T12:55:29.821Z,25.22
2022-07-26T12:57:57.196Z,25.23
2022-07-26T13:00:24.131Z,25.23
2022-07-26T13:02:51.276Z,25.19
2022-07-26T13:05:18.075Z,25.13
2022-07-26T13:07:44.943Z,25.06
2022-07-26T13:12:59.347Z,24.95
2022-07-26T13:15:36.567Z,24.95
2022-07-26T13:18:07.911Z,25.00
2022-07-26T13:20:37.065Z,25.02
2022-07-26T13:23:03.984Z,25.04
2022-07-26T13:25:38.690Z,25.04
2022-07-26T13:28:07.696Z,25.01
2022-07-26T13:30:36.590Z,25.03
2022-07-26T13:33:04.169Z,25.07
2022-07-26T13:35:30.954Z,25.13
2022-07-26T13:37:57.671Z,25.16
2022-07-26T13:40:30.688Z,25.18
2022-07-26T13:42:58.242Z,25.20
2022-07-26T13:45:24.982Z,25.21
2022-07-26T13:47:56.443Z,25.26
2022-07-26T13:50:23.201Z,25.27
2022-07-26T13:52:49.946Z,25.28
2022-07-26T13:55:16.724Z,25.31
2022-07-26T13:57:56.349Z,25.34
2022-07-26T14:00:28.776Z,25.36
2022-07-26T14:02:57.466Z,25.38
2022-07-26T14:05:24.651Z,25.37
2022-07-26T14:07:51.478Z,25.36
2022-07-26T14:10:18.504Z,25.37
2022-07-26T14:12:45.314Z,25.37
2022-07-26T14:15:15.439Z,25.37
2022-07-26T14:17:45.598Z,25.37
2022-07-26T14:20:12.538Z,25.38
2022-07-26T14:22:39.478Z,25.39
2022-07-26T14:25:07.257Z,25.40
2022-07-26T14:27:33.990Z,25.43
2022-07-26T14:30:00.733Z,25.46
2022-07-26T14:32:27.484Z,25.49
2022-07-26T14:34:54.332Z,25.54
2022-07-26T14:37:43.607Z,25.57
2022-07-26T14:40:08.477Z,25.57
2022-07-26T14:42:35.188Z,25.53
2022-07-26T14:45:01.923Z,25.47
2022-07-26T14:47:28.673Z,25.45
2022-07-26T14:49:55.408Z,25.44
2022-07-26T14:52:22.413Z,25.44
2022-07-26T14:54:49.178Z,25.46
2022-07-26T14:57:15.976Z,25.48
2022-07-26T14:59:42.707Z,25.50
2022-07-26T15:02:09.542Z,25.52
2022-07-26T15:04:36.527Z,25.56
2022-07-26T15:07:03.298Z,25.59
2022-07-26T15:09:30.025Z,25.60
2022-07-26T15:11:56.820Z,25.61
2022-07-26T15:14:23.606Z,25.61
2022-07-26T15:16:50.406Z,25.60
2022-07-26T15:19:20.971Z,25.58
2022-07-26T15:21:51.208Z,25.56
2022-07-26T15:24:17.894Z,25.54
2022-07-26T15:26:45.378Z,25.53
2022-07-26T15:29:13.659Z,25.51
2022-07-26T15:31:40.412Z,25.50
2022-07-26T15:34:07.808Z,25.48
2022-07-26T15:36:34.758Z,25.47
2022-07-26T15:39:14.611Z,25.44
2022-07-26T15:41:43.259Z,25.41
2022-07-26T15:44:11.540Z,25.37
2022-07-26T15:46:39.926Z,25.33
2022-07-26T15:49:07.713Z,25.30
2022-07-26T15:51:34.663Z,25.28
2022-07-26T15:54:02.524Z,25.25
2022-07-26T15:56:29.388Z,25.23
2022-07-26T15:58:56.171Z,25.20
2022-07-26T16:01:23.159Z,25.17
2022-07-26T16:03:50.021Z,25.13
2022-07-26T16:06:16.792Z,25.07
2022-07-26T16:09:05.779Z,25.03
2022-07-26T16:11:30.752Z,24.98
2022-07-26T16:14:01.324Z,24.95
2022-07-26T16:16:28.362Z,24.92
2022-07-26T16:18:55.881Z,24.89
2022-07-26T16:21:22.668Z,24.88
2022-07-26T16:23:50.937Z,24.86
2022-07-26T16:26:18.050Z,24.84
2022-07-26T16:28:44.835Z,24.83
2022-07-26T16:31:11.685Z,24.81
2022-07-26T16:33:41.977Z,24.79
2022-07-26T16:36:13.081Z,24.76
2022-07-26T16:38:39.878Z,24.74
2022-07-26T16:41:06.655Z,24.70
2022-07-26T16:43:34.599Z,24.65
2022-07-26T16:46:01.509Z,24.60
2022-07-26T16:48:28.284Z,24.57
2022-07-26T16:50:55.107Z,24.53
2022-07-26T16:53:21.879Z,24.47
2022-07-26T16:55:51.399Z,24.45
2022-07-26T16:58:19.074Z,24.41
2022-07-26T17:00:46.130Z,24.38
2022-07-26T17:03:15.938Z,24.35
2022-07-26T17:05:44.549Z,24.30
2022-07-26T17:08:11.359Z,24.26
2022-07-26T17:10:38.220Z,24.23
2022-07-26T17:13:05.069Z,24.19
2022-07-26T17:15:31.855Z,24.14
2022-07-26T17:17:58.592Z,24.08
2022-07-26T17:20:25.507Z,24.01
2022-07-26T17:22:52.338Z,23.91
2022-07-26T17:25:19.073Z,23.80
2022-07-26T17:27:45.953Z,23.67
2022-07-26T17:30:13.101Z,23.53
2022-07-26T17:32:39.907Z,23.39
2022-07-26T17:35:06.891Z,23.23
2022-07-26T17:37:35.049Z,23.10
2022-07-26T17:40:03.440Z,22.96
2022-07-26T17:42:30.399Z,22.81
2022-07-26T17:44:57.348Z,22.66
2022-07-26T17:47:27.957Z,22.52
2022-07-26T17:50:19.576Z,22.37
2022-07-26T17:52:47.531Z,22.20
2022-07-26T17:55:14.329Z,22.04
2022-07-26T17:57:41.140Z,21.88
2022-07-26T18:00:08.966Z,21.73
2022-07-26T18:02:35.741Z,21.58
2022-07-26T18:05:03.370Z,21.45
2022-07-26T18:07:30.243Z,21.30
2022-07-26T18:09:57.369Z,21.18
2022-07-26T18:12:24.236Z,21.06
2022-07-26T18:14:50.976Z,20.96
2022-07-26T18:17:17.737Z,20.84
2022-07-26T18:19:44.469Z,20.72
2022-07-26T18:22:11.186Z,20.60
2022-07-26T18:24:38.016Z,20.50
2022-07-26T18:27:04.809Z,20.40
2022-07-26T18:29:31.755Z,20.31
2022-07-26T18:32:00.319Z,20.22
2022-07-26T18:34:27.208Z,20.12
2022-07-26T18:36:54.211Z,20.02
2022-07-26T18:39:20.990Z,19.94
2022-07-26T18:41:47.834Z,19.87
2022-07-26T18:44:14.573Z,19.81
2022-07-26T18:46:41.454Z,19.75
2022-07-26T18:49:08.434Z,19.69
2022-07-26T18:51:42.970Z,19.63
2022-07-26T18:54:10.112Z,19.58
2022-07-26T18:56:36.946Z,19.53
2022-07-26T18:59:03.877Z,19.47
2022-07-26T19:01:30.650Z,19.45
2022-07-26T19:03:57.530Z,19.41
2022-07-26T19:06:24.738Z,19.36
2022-07-26T19:08:51.481Z,19.33
2022-07-26T19:11:18.266Z,19.29
2022-07-26T19:13:45.100Z,19.27
2022-07-26T19:16:11.909Z,19.23
2022-07-26T19:18:38.708Z,19.17
2022-07-26T19:21:05.506Z,19.14
2022-07-26T19:23:32.233Z,19.09
2022-07-26T19:25:59.025Z,19.05
2022-07-26T19:28:25.908Z,19.01
2022-07-26T19:30:52.748Z,18.96
2022-07-26T19:33:19.641Z,18.92
2022-07-26T19:35:46.381Z,18.90
2022-07-26T19:38:13.556Z,18.90
2022-07-26T19:40:40.275Z,18.89
2022-07-26T19:43:07.077Z,18.86
2022-07-26T19:45:33.813Z,18.82
2022-07-26T19:48:00.515Z,18.79
2022-07-26T19:50:27.339Z,18.76
2022-07-26T19:52:54.064Z,18.72
2022-07-26T19:55:20.954Z,18.68
2022-07-26T19:57:47.697Z,18.64
2022-07-26T20:00:14.888Z,18.60
2022-07-26T20:02:41.957Z,18.57
2022-07-26T20:05:10.448Z,18.55
2022-07-26T20:07:37.294Z,18.51
2022-07-26T20:10:04.448Z,18.49
2022-07-26T20:12:32.702Z,18.46
2022-07-26T20:14:59.462Z,18.43
2022-07-26T20:17:26.343Z,18.40
2022-07-26T20:19:53.301Z,18.39
2022-07-26T20:22:20.026Z,18.36
2022-07-26T20:24:46.833Z,18.34
2022-07-26T20:27:13.611Z,18.32
2022-07-26T20:29:40.372Z,18.28
2022-07-26T20:32:07.439Z,18.23
2022-07-26T20:34:35.053Z,18.24
2022-07-26T20:37:01.791Z,18.22
2022-07-26T20:39:29.134Z,18.19
2022-07-26T20:41:57.169Z,18.16
2022-07-26T20:44:28.169Z,18.13
2022-07-26T20:46:55.307Z,18.12
2022-07-26T20:49:22.129Z,18.09
2022-07-26T20:51:48.964Z,18.07
2022-07-26T20:54:15.935Z,18.06
2022-07-26T20:56:43.170Z,18.04
2022-07-26T20:59:10.340Z,18.01
2022-07-26T21:01:37.627Z,18.00
2022-07-26T21:04:04.645Z,17.97
2022-07-26T21:06:33.227Z,17.94
2022-07-26T21:09:00.416Z,17.92
2022-07-26T21:11:36.040Z,17.89
2022-07-26T21:14:02.776Z,17.85
2022-07-26T21:16:29.542Z,17.84
2022-07-26T21:18:56.311Z,17.83
2022-07-26T21:21:23.118Z,17.81
2022-07-26T21:23:49.918Z,17.77
2022-07-26T21:26:16.639Z,17.77
2022-07-26T21:31:48.521Z,17.73
2022-07-26T21:34:15.357Z,17.67
2022-07-26T21:36:42.172Z,17.64
2022-07-26T21:39:09.715Z,17.56
2022-07-26T21:41:36.721Z,17.52
2022-07-26T21:44:04.291Z,17.50
2022-07-26T21:46:31.227Z,17.46
2022-07-26T21:48:58.054Z,17.42
2022-07-26T21:51:24.844Z,17.38
2022-07-26T21:53:51.587Z,17.37
2022-07-26T21:56:18.328Z,17.33
2022-07-26T21:58:45.035Z,17.29
2022-07-26T22:01:13.695Z,17.27
2022-07-26T22:03:40.786Z,17.24
2022-07-26T22:06:07.711Z,17.22
2022-07-26T22:08:34.517Z,17.21
2022-07-26T22:11:01.301Z,17.19
2022-07-26T22:13:28.085Z,17.17
2022-07-26T22:15:54.809Z,17.15
2022-07-26T22:18:21.580Z,17.14
2022-07-26T22:20:49.772Z,17.13
2022-07-26T22:23:17.083Z,17.11
2022-07-26T22:25:43.831Z,17.10
2022-07-26T22:28:10.927Z,17.08
2022-07-26T22:30:37.793Z,17.05
2022-07-26T22:33:05.374Z,17.04
2022-07-26T22:35:36.510Z,17.03
2022-07-26T22:38:05.708Z,17.00
2022-07-26T22:40:33.063Z,16.97
2022-07-26T22:43:00.183Z,16.96
2022-07-26T22:45:27.378Z,16.98
2022-07-26T22:47:55.878Z,16.99
2022-07-26T22:50:23.629Z,16.99
2022-07-26T22:52:52.152Z,16.97
2022-07-26T22:55:18.910Z,16.95
2022-07-26T22:57:45.717Z,16.93
2022-07-26T23:00:13.659Z,16.89
2022-07-26T23:02:40.519Z,16.86
2022-07-26T23:05:07.936Z,16.83
2022-07-26T23:07:35.646Z,16.78
2022-07-26T23:10:02.486Z,16.76
2022-07-26T23:12:29.338Z,16.73
2022-07-26T23:14:56.139Z,16.71
2022-07-26T23:17:22.858Z,16.70
2022-07-26T23:19:49.646Z,16.68
2022-07-26T23:22:16.394Z,16.66
2022-07-26T23:24:43.575Z,16.65
2022-07-26T23:27:10.557Z,16.65
2022-07-26T23:29:37.293Z,16.64
2022-07-26T23:32:04.299Z,16.63
2022-07-26T23:34:31.013Z,16.61
2022-07-26T23:36:57.755Z,16.60
2022-07-26T23:39:24.499Z,16.57
2022-07-26T23:41:51.237Z,16.55
2022-07-26T23:44:17.971Z,16.54
2022-07-26T23:46:44.849Z,16.52
2022-07-26T23:49:11.939Z,16.51
2022-07-26T23:51:38.941Z,16.51
2022-07-26T23:54:05.952Z,16.49
2022-07-26T23:56:32.736Z,16.47
2022-07-26T23:58:59.510Z,16.45
